sensor_id;sensor_type;location;lat;lon;timestamp;pressure;altitude;pressure_sealevel;temperature;humidity
3082;BME280;1551;51.046;7.010;2023-06-14T00:01:24;100646.09;;;21.60;40.38
3082;BME280;1551;51.046;7.010;2023-06-14T00:04:13;100645.25;;;21.60;40.15
3082;BME280;1551;51.046;7.010;2023-06-14T00:07:02;100649.13;;;21.53;40.15
3082;BME280;1551;51.046;7.010;2023-06-14T00:09:52;100640.97;;;21.43;40.53
3082;BME280;1551;51.046;7.010;2023-06-14T00:12:41;100646.38;;;21.40;40.68
3082;BME280;1551;51.046;7.010;2023-06-14T00:15:33;100645.69;;;21.37;40.77
3082;BME280;1551;51.046;7.010;2023-06-14T00:18:23;100651.06;;;21.34;40.73
3082;BME280;1551;51.046;7.010;2023-06-14T00:21:18;100654.50;;;21.34;40.61
3082;BME280;1551;51.046;7.010;2023-06-14T00:24:08;100653.84;;;21.31;40.67
3082;BME280;1551;51.046;7.010;2023-06-14T00:26:57;100660.97;;;21.27;40.63
3082;BME280;1551;51.046;7.010;2023-06-14T00:29:46;100662.97;;;21.22;40.84
3082;BME280;1551;51.046;7.010;2023-06-14T00:32:35;100668.38;;;21.19;40.75
3082;BME280;1551;51.046;7.010;2023-06-14T00:35:24;100664.06;;;21.18;40.67
3082;BME280;1551;51.046;7.010;2023-06-14T00:38:13;100672.72;;;21.18;40.83
3082;BME280;1551;51.046;7.010;2023-06-14T00:41:03;100674.84;;;21.12;40.97
3082;BME280;1551;51.046;7.010;2023-06-14T00:43:52;100666.66;;;21.02;40.95
3082;BME280;1551;51.046;7.010;2023-06-14T00:46:48;100676.09;;;21.05;40.80
3082;BME280;1551;51.046;7.010;2023-06-14T00:49:37;100678.59;;;21.06;40.98
3082;BME280;1551;51.046;7.010;2023-06-14T00:52:26;100678.91;;;21.00;41.10
3082;BME280;1551;51.046;7.010;2023-06-14T00:55:16;100680.06;;;20.95;41.21
3082;BME280;1551;51.046;7.010;2023-06-14T00:58:06;100677.44;;;20.95;41.29
3082;BME280;1551;51.046;7.010;2023-06-14T01:00:55;100681.97;;;20.91;41.37
3082;BME280;1551;51.046;7.010;2023-06-14T01:03:45;100680.44;;;20.87;41.50
3082;BME280;1551;51.046;7.010;2023-06-14T01:06:57;100686.00;;;20.81;41.56
3082;BME280;1551;51.046;7.010;2023-06-14T01:13:33;100685.69;;;20.70;42.09
3082;BME280;1551;51.046;7.010;2023-06-14T01:16:23;100668.44;;;20.52;42.50
3082;BME280;1551;51.046;7.010;2023-06-14T01:19:13;100687.84;;;20.62;42.12
3082;BME280;1551;51.046;7.010;2023-06-14T01:22:03;100694.91;;;20.60;41.88
3082;BME280;1551;51.046;7.010;2023-06-14T01:24:53;100679.59;;;20.54;41.73
3082;BME280;1551;51.046;7.010;2023-06-14T01:27:44;100680.69;;;20.50;42.33
3082;BME280;1551;51.046;7.010;2023-06-14T01:30:33;100683.28;;;20.50;42.19
3082;BME280;1551;51.046;7.010;2023-06-14T01:33:26;100680.81;;;20.47;41.86
3082;BME280;1551;51.046;7.010;2023-06-14T01:36:18;100679.16;;;20.46;41.91
3082;BME280;1551;51.046;7.010;2023-06-14T01:39:08;100687.09;;;20.43;41.87
3082;BME280;1551;51.046;7.010;2023-06-14T01:41:58;100681.16;;;20.41;41.80
3082;BME280;1551;51.046;7.010;2023-06-14T01:44:48;100679.78;;;20.34;42.17
3082;BME280;1551;51.046;7.010;2023-06-14T01:47:37;100674.19;;;20.24;41.91
3082;BME280;1551;51.046;7.010;2023-06-14T01:50:30;100687.72;;;20.31;42.09
3082;BME280;1551;51.046;7.010;2023-06-14T01:53:20;100684.69;;;20.23;42.17
3082;BME280;1551;51.046;7.010;2023-06-14T01:56:09;100693.44;;;20.20;42.44
3082;BME280;1551;51.046;7.010;2023-06-14T01:58:58;100688.28;;;20.19;42.06
3082;BME280;1551;51.046;7.010;2023-06-14T02:01:47;100690.06;;;20.18;42.31
3082;BME280;1551;51.046;7.010;2023-06-14T02:04:36;100691.13;;;20.14;42.03
3082;BME280;1551;51.046;7.010;2023-06-14T02:07:25;100685.09;;;20.14;42.15
3082;BME280;1551;51.046;7.010;2023-06-14T02:10:14;100690.44;;;20.11;42.20
3082;BME280;1551;51.046;7.010;2023-06-14T02:13:04;100687.09;;;20.09;42.41
3082;BME280;1551;51.046;7.010;2023-06-14T02:15:53;100684.16;;;19.98;42.31
3082;BME280;1551;51.046;7.010;2023-06-14T02:18:44;100691.28;;;19.94;42.34
3082;BME280;1551;51.046;7.010;2023-06-14T02:21:33;100693.09;;;19.92;42.78
3082;BME280;1551;51.046;7.010;2023-06-14T02:24:23;100677.34;;;19.78;42.90
3082;BME280;1551;51.046;7.010;2023-06-14T02:27:13;100692.06;;;19.77;43.02
3082;BME280;1551;51.046;7.010;2023-06-14T02:30:02;100693.50;;;19.66;43.08
3082;BME280;1551;51.046;7.010;2023-06-14T02:32:51;100694.00;;;19.55;43.66
3082;BME280;1551;51.046;7.010;2023-06-14T02:35:42;100703.19;;;19.44;44.14
3082;BME280;1551;51.046;7.010;2023-06-14T02:38:31;100708.56;;;19.41;44.53
3082;BME280;1551;51.046;7.010;2023-06-14T02:41:20;100711.16;;;19.41;44.23
3082;BME280;1551;51.046;7.010;2023-06-14T02:44:09;100712.56;;;19.48;44.21
3082;BME280;1551;51.046;7.010;2023-06-14T02:47:00;100708.25;;;19.47;44.20
3082;BME280;1551;51.046;7.010;2023-06-14T02:49:49;100705.88;;;19.42;44.58
3082;BME280;1551;51.046;7.010;2023-06-14T02:52:39;100709.72;;;19.34;44.55
3082;BME280;1551;51.046;7.010;2023-06-14T02:55:31;100716.22;;;19.23;44.65
3082;BME280;1551;51.046;7.010;2023-06-14T02:58:21;100712.78;;;19.23;45.03
3082;BME280;1551;51.046;7.010;2023-06-14T03:01:10;100718.81;;;19.23;45.45
3082;BME280;1551;51.046;7.010;2023-06-14T03:04:02;100721.41;;;19.23;45.84
3082;BME280;1551;51.046;7.010;2023-06-14T03:06:53;100724.34;;;19.16;46.37
3082;BME280;1551;51.046;7.010;2023-06-14T03:09:44;100723.69;;;19.11;46.53
3082;BME280;1551;51.046;7.010;2023-06-14T03:12:35;100731.13;;;19.00;46.93
3082;BME280;1551;51.046;7.010;2023-06-14T03:15:25;100735.63;;;18.96;46.98
3082;BME280;1551;51.046;7.010;2023-06-14T03:18:15;100734.91;;;18.93;47.07
3082;BME280;1551;51.046;7.010;2023-06-14T03:21:04;100736.19;;;18.83;47.47
3082;BME280;1551;51.046;7.010;2023-06-14T03:23:59;100732.84;;;18.81;48.57
3082;BME280;1551;51.046;7.010;2023-06-14T03:26:48;100738.09;;;18.79;49.81
3082;BME280;1551;51.046;7.010;2023-06-14T03:29:38;100739.06;;;18.77;50.74
3082;BME280;1551;51.046;7.010;2023-06-14T03:32:27;100745.16;;;18.76;51.17
3082;BME280;1551;51.046;7.010;2023-06-14T03:35:17;100741.22;;;18.67;51.02
3082;BME280;1551;51.046;7.010;2023-06-14T03:38:07;100748.22;;;18.65;51.61
3082;BME280;1551;51.046;7.010;2023-06-14T03:40:56;100748.78;;;18.72;51.56
3082;BME280;1551;51.046;7.010;2023-06-14T03:43:46;100748.78;;;18.72;51.24
3082;BME280;1551;51.046;7.010;2023-06-14T03:46:35;100755.41;;;18.59;51.47
3082;BME280;1551;51.046;7.010;2023-06-14T03:49:25;100751.78;;;18.63;51.61
3082;BME280;1551;51.046;7.010;2023-06-14T03:52:14;100750.53;;;18.51;52.11
3082;BME280;1551;51.046;7.010;2023-06-14T03:55:06;100760.78;;;18.54;52.80
3082;BME280;1551;51.046;7.010;2023-06-14T03:57:57;100763.22;;;18.57;53.11
3082;BME280;1551;51.046;7.010;2023-06-14T04:00:46;100766.69;;;18.58;53.31
3082;BME280;1551;51.046;7.010;2023-06-14T04:03:35;100765.78;;;18.59;53.58
3082;BME280;1551;51.046;7.010;2023-06-14T04:06:25;100763.66;;;18.68;53.80
3082;BME280;1551;51.046;7.010;2023-06-14T04:09:21;100767.13;;;18.67;53.06
3082;BME280;1551;51.046;7.010;2023-06-14T04:12:10;100774.06;;;18.67;52.36
3082;BME280;1551;51.046;7.010;2023-06-14T04:15:00;100782.56;;;18.70;52.22
3082;BME280;1551;51.046;7.010;2023-06-14T04:17:52;100772.69;;;18.78;51.83
3082;BME280;1551;51.046;7.010;2023-06-14T04:20:43;100778.81;;;18.77;51.61
3082;BME280;1551;51.046;7.010;2023-06-14T04:23:32;100781.13;;;18.83;51.67
3082;BME280;1551;51.046;7.010;2023-06-14T04:26:23;100792.09;;;18.90;52.25
3082;BME280;1551;51.046;7.010;2023-06-14T04:29:18;100797.22;;;18.91;53.24
3082;BME280;1551;51.046;7.010;2023-06-14T04:32:14;100797.03;;;18.96;54.03
3082;BME280;1551;51.046;7.010;2023-06-14T04:35:08;100799.16;;;19.06;53.54
3082;BME280;1551;51.046;7.010;2023-06-14T04:37:58;100800.38;;;19.18;52.50
3082;BME280;1551;51.046;7.010;2023-06-14T04:40:48;100805.88;;;19.31;51.83
3082;BME280;1551;51.046;7.010;2023-06-14T04:43:40;100807.50;;;19.33;51.31
3082;BME280;1551;51.046;7.010;2023-06-14T04:46:30;100812.50;;;19.38;51.47
3082;BME280;1551;51.046;7.010;2023-06-14T04:49:20;100816.72;;;19.40;50.60
3082;BME280;1551;51.046;7.010;2023-06-14T04:52:13;100824.94;;;19.50;49.98
3082;BME280;1551;51.046;7.010;2023-06-14T04:55:05;100829.81;;;19.57;48.77
3082;BME280;1551;51.046;7.010;2023-06-14T04:57:55;100827.66;;;19.67;48.41
3082;BME280;1551;51.046;7.010;2023-06-14T05:00:44;100829.22;;;19.69;47.11
3082;BME280;1551;51.046;7.010;2023-06-14T05:03:33;100835.00;;;19.76;46.45
3082;BME280;1551;51.046;7.010;2023-06-14T05:06:23;100831.00;;;19.87;45.92
3082;BME280;1551;51.046;7.010;2023-06-14T05:09:13;100828.97;;;19.94;45.92
3082;BME280;1551;51.046;7.010;2023-06-14T05:12:03;100831.13;;;20.03;45.29
3082;BME280;1551;51.046;7.010;2023-06-14T05:14:52;100834.16;;;20.13;44.66
3082;BME280;1551;51.046;7.010;2023-06-14T05:17:45;100836.34;;;20.22;44.58
3082;BME280;1551;51.046;7.010;2023-06-14T05:20:42;100838.38;;;20.34;44.38
3082;BME280;1551;51.046;7.010;2023-06-14T05:23:31;100836.03;;;20.46;43.93
3082;BME280;1551;51.046;7.010;2023-06-14T05:26:19;100841.06;;;20.49;44.16
3082;BME280;1551;51.046;7.010;2023-06-14T05:29:09;100837.34;;;20.55;43.60
3082;BME280;1551;51.046;7.010;2023-06-14T05:31:58;100837.19;;;20.58;43.25
3082;BME280;1551;51.046;7.010;2023-06-14T05:34:47;100840.78;;;20.55;43.33
3082;BME280;1551;51.046;7.010;2023-06-14T05:37:36;100832.53;;;20.65;43.54
3082;BME280;1551;51.046;7.010;2023-06-14T05:40:25;100836.88;;;20.81;43.72
3082;BME280;1551;51.046;7.010;2023-06-14T05:43:14;100840.69;;;20.91;43.79
3082;BME280;1551;51.046;7.010;2023-06-14T05:46:03;100843.00;;;20.97;43.47
3082;BME280;1551;51.046;7.010;2023-06-14T05:48:54;100850.38;;;21.06;43.17
3082;BME280;1551;51.046;7.010;2023-06-14T05:51:43;100848.38;;;21.11;42.57
3082;BME280;1551;51.046;7.010;2023-06-14T05:54:32;100849.63;;;21.21;43.06
3082;BME280;1551;51.046;7.010;2023-06-14T05:57:21;100852.72;;;21.28;42.78
3082;BME280;1551;51.046;7.010;2023-06-14T06:00:11;100859.47;;;21.32;42.33
3082;BME280;1551;51.046;7.010;2023-06-14T06:03:03;100860.81;;;21.39;42.06
3082;BME280;1551;51.046;7.010;2023-06-14T06:05:51;100837.72;;;21.33;42.15
3082;BME280;1551;51.046;7.010;2023-06-14T06:08:40;100859.84;;;21.57;41.92
3082;BME280;1551;51.046;7.010;2023-06-14T06:11:29;100859.47;;;21.65;41.51
3082;BME280;1551;51.046;7.010;2023-06-14T06:14:18;100860.97;;;21.69;41.41
3082;BME280;1551;51.046;7.010;2023-06-14T06:17:07;100858.56;;;21.81;41.15
3082;BME280;1551;51.046;7.010;2023-06-14T06:19:56;100861.41;;;21.94;40.94
3082;BME280;1551;51.046;7.010;2023-06-14T06:22:45;100867.34;;;22.12;41.40
3082;BME280;1551;51.046;7.010;2023-06-14T06:25:34;100871.56;;;22.14;40.67
3082;BME280;1551;51.046;7.010;2023-06-14T06:28:23;100864.19;;;22.22;40.65
3082;BME280;1551;51.046;7.010;2023-06-14T06:31:12;100873.75;;;22.37;40.56
3082;BME280;1551;51.046;7.010;2023-06-14T06:34:01;100870.09;;;22.55;40.08
3082;BME280;1551;51.046;7.010;2023-06-14T06:36:50;100880.53;;;22.71;39.72
3082;BME280;1551;51.046;7.010;2023-06-14T06:39:39;100878.69;;;22.73;39.19
3082;BME280;1551;51.046;7.010;2023-06-14T06:42:29;100877.25;;;22.83;39.07
3082;BME280;1551;51.046;7.010;2023-06-14T06:45:21;100886.94;;;22.95;38.96
3082;BME280;1551;51.046;7.010;2023-06-14T06:48:11;100894.19;;;23.20;39.29
3082;BME280;1551;51.046;7.010;2023-06-14T06:51:00;100891.66;;;23.48;39.17
3082;BME280;1551;51.046;7.010;2023-06-14T06:53:53;100892.69;;;23.60;38.03
3082;BME280;1551;51.046;7.010;2023-06-14T06:56:43;100901.84;;;23.67;37.46
3082;BME280;1551;51.046;7.010;2023-06-14T06:59:32;100905.94;;;23.85;37.05
3082;BME280;1551;51.046;7.010;2023-06-14T07:02:21;100897.44;;;23.96;36.50
3082;BME280;1551;51.046;7.010;2023-06-14T07:05:10;100907.84;;;24.38;36.28
3082;BME280;1551;51.046;7.010;2023-06-14T07:08:00;100913.56;;;24.57;35.21
3082;BME280;1551;51.046;7.010;2023-06-14T07:10:49;100917.78;;;24.86;35.09
3082;BME280;1551;51.046;7.010;2023-06-14T07:13:38;100912.75;;;25.22;34.94
3082;BME280;1551;51.046;7.010;2023-06-14T07:16:27;100914.75;;;25.44;34.03
3082;BME280;1551;51.046;7.010;2023-06-14T07:19:16;100907.84;;;25.81;34.38
3082;BME280;1551;51.046;7.010;2023-06-14T07:22:05;100911.34;;;26.05;33.08
3082;BME280;1551;51.046;7.010;2023-06-14T07:24:54;100910.22;;;26.09;32.95
3082;BME280;1551;51.046;7.010;2023-06-14T07:27:45;100893.84;;;26.18;32.49
3082;BME280;1551;51.046;7.010;2023-06-14T07:30:35;100904.78;;;26.36;32.41
3082;BME280;1551;51.046;7.010;2023-06-14T07:33:24;100909.03;;;26.49;33.01
3082;BME280;1551;51.046;7.010;2023-06-14T07:36:13;100909.28;;;26.70;32.26
3082;BME280;1551;51.046;7.010;2023-06-14T07:39:02;100914.97;;;26.88;31.23
3082;BME280;1551;51.046;7.010;2023-06-14T07:41:52;100912.91;;;27.15;30.79
3082;BME280;1551;51.046;7.010;2023-06-14T07:44:41;100915.44;;;27.27;29.47
3082;BME280;1551;51.046;7.010;2023-06-14T07:47:30;100912.31;;;27.11;29.34
3082;BME280;1551;51.046;7.010;2023-06-14T07:50:19;100908.75;;;27.23;29.95
3082;BME280;1551;51.046;7.010;2023-06-14T07:53:07;100914.25;;;27.32;28.53
3082;BME280;1551;51.046;7.010;2023-06-14T07:55:57;100914.19;;;27.44;27.71
3082;BME280;1551;51.046;7.010;2023-06-14T07:58:46;100912.53;;;27.54;27.22
3082;BME280;1551;51.046;7.010;2023-06-14T08:01:35;100914.31;;;27.76;27.11
3082;BME280;1551;51.046;7.010;2023-06-14T08:04:24;100914.94;;;27.79;26.34
3082;BME280;1551;51.046;7.010;2023-06-14T08:07:14;100912.88;;;27.83;26.21
3082;BME280;1551;51.046;7.010;2023-06-14T08:10:05;100914.81;;;27.81;26.82
3082;BME280;1551;51.046;7.010;2023-06-14T08:12:54;100916.06;;;27.99;26.55
3082;BME280;1551;51.046;7.010;2023-06-14T08:15:43;100908.81;;;27.90;26.03
3082;BME280;1551;51.046;7.010;2023-06-14T08:18:32;100907.91;;;28.13;26.28
3082;BME280;1551;51.046;7.010;2023-06-14T08:21:21;100906.28;;;28.33;25.61
3082;BME280;1551;51.046;7.010;2023-06-14T08:24:11;100911.03;;;28.50;25.54
3082;BME280;1551;51.046;7.010;2023-06-14T08:27:01;100901.06;;;28.53;25.79
3082;BME280;1551;51.046;7.010;2023-06-14T08:29:50;100897.34;;;28.56;25.33
3082;BME280;1551;51.046;7.010;2023-06-14T08:32:38;100909.38;;;28.60;25.30
3082;BME280;1551;51.046;7.010;2023-06-14T08:35:28;100914.00;;;28.56;25.79
3082;BME280;1551;51.046;7.010;2023-06-14T08:38:17;100916.28;;;28.50;25.33
3082;BME280;1551;51.046;7.010;2023-06-14T08:41:06;100910.16;;;28.72;24.99
3082;BME280;1551;51.046;7.010;2023-06-14T08:43:56;100912.97;;;28.80;25.52
3082;BME280;1551;51.046;7.010;2023-06-14T08:46:47;100909.28;;;29.03;25.49
3082;BME280;1551;51.046;7.010;2023-06-14T08:49:37;100917.00;;;29.15;24.72
3082;BME280;1551;51.046;7.010;2023-06-14T08:52:28;100907.78;;;28.89;25.27
3082;BME280;1551;51.046;7.010;2023-06-14T08:55:23;100908.47;;;29.23;25.37
3082;BME280;1551;51.046;7.010;2023-06-14T08:58:14;100907.63;;;29.22;24.83
3082;BME280;1551;51.046;7.010;2023-06-14T09:01:04;100895.19;;;29.13;24.82
3082;BME280;1551;51.046;7.010;2023-06-14T09:03:53;100900.34;;;29.36;25.98
3082;BME280;1551;51.046;7.010;2023-06-14T09:06:46;100900.63;;;29.33;25.69
3082;BME280;1551;51.046;7.010;2023-06-14T09:09:38;100909.25;;;29.35;24.95
3082;BME280;1551;51.046;7.010;2023-06-14T09:12:27;100913.59;;;29.45;25.33
3082;BME280;1551;51.046;7.010;2023-06-14T09:15:16;100902.56;;;29.81;25.66
3082;BME280;1551;51.046;7.010;2023-06-14T09:18:05;100898.09;;;29.52;24.91
3082;BME280;1551;51.046;7.010;2023-06-14T09:20:55;100908.31;;;29.66;25.43
3082;BME280;1551;51.046;7.010;2023-06-14T09:23:46;100896.56;;;29.79;26.23
3082;BME280;1551;51.046;7.010;2023-06-14T09:26:37;100901.84;;;30.19;25.67
3082;BME280;1551;51.046;7.010;2023-06-14T09:29:27;100902.66;;;30.10;25.14
3082;BME280;1551;51.046;7.010;2023-06-14T09:32:16;100901.84;;;30.19;25.37
3082;BME280;1551;51.046;7.010;2023-06-14T09:35:09;100873.59;;;30.10;25.10
3082;BME280;1551;51.046;7.010;2023-06-14T09:37:58;100907.47;;;30.64;25.54
3082;BME280;1551;51.046;7.010;2023-06-14T09:40:47;100908.44;;;30.73;25.30
3082;BME280;1551;51.046;7.010;2023-06-14T09:43:37;100912.88;;;30.63;24.85
3082;BME280;1551;51.046;7.010;2023-06-14T09:46:28;100897.19;;;30.61;25.00
3082;BME280;1551;51.046;7.010;2023-06-14T09:49:20;100923.63;;;30.71;24.71
3082;BME280;1551;51.046;7.010;2023-06-14T09:52:17;100909.28;;;30.64;25.34
3082;BME280;1551;51.046;7.010;2023-06-14T09:55:12;100909.13;;;30.65;26.48
3082;BME280;1551;51.046;7.010;2023-06-14T09:58:04;100917.06;;;30.84;24.87
3082;BME280;1551;51.046;7.010;2023-06-14T10:00:54;100917.91;;;30.66;25.10
3082;BME280;1551;51.046;7.010;2023-06-14T10:03:44;100921.38;;;30.56;26.41
3082;BME280;1551;51.046;7.010;2023-06-14T10:06:36;100918.38;;;30.99;25.27
3082;BME280;1551;51.046;7.010;2023-06-14T10:09:29;100914.31;;;31.05;25.28
3082;BME280;1551;51.046;7.010;2023-06-14T10:12:19;100920.06;;;31.37;26.01
3082;BME280;1551;51.046;7.010;2023-06-14T10:15:16;100915.94;;;31.35;26.86
3082;BME280;1551;51.046;7.010;2023-06-14T10:18:12;100915.91;;;31.44;25.72
3082;BME280;1551;51.046;7.010;2023-06-14T10:24:07;100916.78;;;31.16;25.57
3082;BME280;1551;51.046;7.010;2023-06-14T10:26:58;100914.69;;;31.19;26.00
3082;BME280;1551;51.046;7.010;2023-06-14T10:33:06;100905.13;;;32.02;25.88
3082;BME280;1551;51.046;7.010;2023-06-14T10:36:09;100897.28;;;32.27;25.36
3082;BME280;1551;51.046;7.010;2023-06-14T10:39:15;100910.97;;;32.50;25.00
3082;BME280;1551;51.046;7.010;2023-06-14T10:42:05;100907.31;;;32.06;24.99
3082;BME280;1551;51.046;7.010;2023-06-14T10:44:55;100909.25;;;32.14;25.58
3082;BME280;1551;51.046;7.010;2023-06-14T10:47:48;100895.09;;;31.96;25.44
3082;BME280;1551;51.046;7.010;2023-06-14T10:50:42;100910.47;;;31.36;26.38
3082;BME280;1551;51.046;7.010;2023-06-14T10:53:40;100907.94;;;31.54;26.13
3082;BME280;1551;51.046;7.010;2023-06-14T10:56:30;100899.38;;;31.79;25.24
3082;BME280;1551;51.046;7.010;2023-06-14T10:59:20;100900.50;;;32.04;24.94
3082;BME280;1551;51.046;7.010;2023-06-14T11:02:45;100903.66;;;31.80;24.72
3082;BME280;1551;51.046;7.010;2023-06-14T11:05:42;100908.63;;;31.92;24.30
3082;BME280;1551;51.046;7.010;2023-06-14T11:11:47;100903.38;;;32.10;24.10
3082;BME280;1551;51.046;7.010;2023-06-14T11:14:38;100910.53;;;32.45;24.01
3082;BME280;1551;51.046;7.010;2023-06-14T11:17:27;100910.16;;;32.22;24.39
3082;BME280;1551;51.046;7.010;2023-06-14T11:20:17;100910.81;;;32.07;24.75
3082;BME280;1551;51.046;7.010;2023-06-14T11:23:06;100903.56;;;32.26;24.67
3082;BME280;1551;51.046;7.010;2023-06-14T11:25:55;100893.47;;;31.85;24.46
3082;BME280;1551;51.046;7.010;2023-06-14T11:28:44;100897.56;;;31.70;24.75
3082;BME280;1551;51.046;7.010;2023-06-14T11:31:33;100888.56;;;32.17;24.65
3082;BME280;1551;51.046;7.010;2023-06-14T11:34:24;100899.44;;;32.59;23.96
3082;BME280;1551;51.046;7.010;2023-06-14T11:37:13;100893.50;;;32.47;23.85
3082;BME280;1551;51.046;7.010;2023-06-14T11:40:03;100906.88;;;32.55;23.68
3082;BME280;1551;51.046;7.010;2023-06-14T11:43:01;100895.34;;;32.47;22.99
3082;BME280;1551;51.046;7.010;2023-06-14T11:45:50;100904.50;;;32.35;23.55
3082;BME280;1551;51.046;7.010;2023-06-14T11:48:41;100905.53;;;32.51;23.12
3082;BME280;1551;51.046;7.010;2023-06-14T11:51:33;100896.72;;;32.86;23.14
3082;BME280;1551;51.046;7.010;2023-06-14T11:54:22;100908.47;;;33.27;22.40
3082;BME280;1551;51.046;7.010;2023-06-14T11:57:11;100906.03;;;33.08;22.38
3082;BME280;1551;51.046;7.010;2023-06-14T12:00:03;100890.31;;;33.14;22.86
3082;BME280;1551;51.046;7.010;2023-06-14T12:03:00;100887.81;;;33.13;22.71
3082;BME280;1551;51.046;7.010;2023-06-14T12:05:49;100883.97;;;32.90;22.94
3082;BME280;1551;51.046;7.010;2023-06-14T12:08:39;100890.94;;;32.91;22.58
3082;BME280;1551;51.046;7.010;2023-06-14T12:11:33;100896.03;;;32.84;21.47
3082;BME280;1551;51.046;7.010;2023-06-14T12:14:28;100882.19;;;32.73;20.87
3082;BME280;1551;51.046;7.010;2023-06-14T12:17:18;100898.88;;;33.08;20.74
3082;BME280;1551;51.046;7.010;2023-06-14T12:20:09;100904.66;;;32.69;20.75
3082;BME280;1551;51.046;7.010;2023-06-14T12:23:03;100890.81;;;32.57;20.88
3082;BME280;1551;51.046;7.010;2023-06-14T12:25:52;100907.91;;;33.15;21.35
3082;BME280;1551;51.046;7.010;2023-06-14T12:28:43;100903.25;;;32.74;21.03
3082;BME280;1551;51.046;7.010;2023-06-14T12:31:33;100891.56;;;32.85;20.65
3082;BME280;1551;51.046;7.010;2023-06-14T12:34:23;100886.19;;;33.20;20.22
3082;BME280;1551;51.046;7.010;2023-06-14T12:37:12;100896.38;;;33.24;20.94
3082;BME280;1551;51.046;7.010;2023-06-14T12:40:01;100907.69;;;33.09;21.51
3082;BME280;1551;51.046;7.010;2023-06-14T12:42:50;100893.13;;;33.13;22.37
3082;BME280;1551;51.046;7.010;2023-06-14T12:45:39;100889.19;;;33.17;21.39
3082;BME280;1551;51.046;7.010;2023-06-14T12:48:28;100898.66;;;33.19;21.43
3082;BME280;1551;51.046;7.010;2023-06-14T12:51:19;100898.00;;;33.51;21.41
3082;BME280;1551;51.046;7.010;2023-06-14T12:54:09;100899.47;;;33.46;21.01
3082;BME280;1551;51.046;7.010;2023-06-14T12:56:58;100903.41;;;33.42;21.56
3082;BME280;1551;51.046;7.010;2023-06-14T12:59:47;100898.16;;;33.50;21.83
3082;BME280;1551;51.046;7.010;2023-06-14T13:02:36;100905.13;;;33.51;21.97
3082;BME280;1551;51.046;7.010;2023-06-14T13:05:25;100890.31;;;33.66;21.54
3082;BME280;1551;51.046;7.010;2023-06-14T13:08:14;100901.41;;;33.61;22.41
3082;BME280;1551;51.046;7.010;2023-06-14T13:11:03;100903.72;;;33.56;22.68
3082;BME280;1551;51.046;7.010;2023-06-14T13:13:52;100904.63;;;33.73;22.48
3082;BME280;1551;51.046;7.010;2023-06-14T13:16:41;100905.59;;;34.06;22.67
3082;BME280;1551;51.046;7.010;2023-06-14T13:19:30;100901.91;;;33.99;22.40
3082;BME280;1551;51.046;7.010;2023-06-14T13:22:19;100910.31;;;33.27;22.87
3082;BME280;1551;51.046;7.010;2023-06-14T13:25:08;100910.34;;;32.91;23.21
3082;BME280;1551;51.046;7.010;2023-06-14T13:27:58;100907.31;;;32.86;22.69
3082;BME280;1551;51.046;7.010;2023-06-14T13:30:47;100882.22;;;32.98;23.11
3082;BME280;1551;51.046;7.010;2023-06-14T13:33:35;100911.13;;;33.27;23.04
3082;BME280;1551;51.046;7.010;2023-06-14T13:36:24;100909.63;;;33.50;22.74
3082;BME280;1551;51.046;7.010;2023-06-14T13:39:13;100906.28;;;33.48;22.35
3082;BME280;1551;51.046;7.010;2023-06-14T13:42:03;100908.53;;;32.74;22.67
3082;BME280;1551;51.046;7.010;2023-06-14T13:44:52;100913.78;;;33.27;22.12
3082;BME280;1551;51.046;7.010;2023-06-14T13:47:41;100904.13;;;32.83;22.46
3082;BME280;1551;51.046;7.010;2023-06-14T13:50:30;100913.13;;;32.90;22.79
3082;BME280;1551;51.046;7.010;2023-06-14T13:53:19;100907.69;;;32.91;23.25
3082;BME280;1551;51.046;7.010;2023-06-14T13:56:08;100905.97;;;32.65;23.06
3082;BME280;1551;51.046;7.010;2023-06-14T13:58:57;100909.00;;;32.07;23.46
3082;BME280;1551;51.046;7.010;2023-06-14T14:01:46;100908.13;;;31.23;24.03
3082;BME280;1551;51.046;7.010;2023-06-14T14:04:35;100906.50;;;31.03;24.07
3082;BME280;1551;51.046;7.010;2023-06-14T14:07:24;100900.09;;;30.87;24.12
3082;BME280;1551;51.046;7.010;2023-06-14T14:10:13;100906.06;;;30.79;23.74
3082;BME280;1551;51.046;7.010;2023-06-14T14:13:03;100907.72;;;31.18;24.31
3082;BME280;1551;51.046;7.010;2023-06-14T14:15:51;100898.84;;;31.66;24.04
3082;BME280;1551;51.046;7.010;2023-06-14T14:18:41;100908.50;;;31.57;23.59
3082;BME280;1551;51.046;7.010;2023-06-14T14:21:30;100906.22;;;30.78;24.22
3082;BME280;1551;51.046;7.010;2023-06-14T14:24:19;100906.44;;;30.27;25.62
3082;BME280;1551;51.046;7.010;2023-06-14T14:27:08;100896.50;;;29.70;25.42
3082;BME280;1551;51.046;7.010;2023-06-14T14:29:57;100895.34;;;29.33;25.73
3082;BME280;1551;51.046;7.010;2023-06-14T14:32:45;100894.31;;;29.75;25.35
3082;BME280;1551;51.046;7.010;2023-06-14T14:35:35;100908.19;;;30.07;25.15
3082;BME280;1551;51.046;7.010;2023-06-14T14:38:24;100907.63;;;30.13;24.38
3082;BME280;1551;51.046;7.010;2023-06-14T14:41:13;100903.91;;;30.25;24.44
3082;BME280;1551;51.046;7.010;2023-06-14T14:44:04;100903.63;;;30.19;24.10
3082;BME280;1551;51.046;7.010;2023-06-14T14:46:53;100887.09;;;30.26;24.94
3082;BME280;1551;51.046;7.010;2023-06-14T14:49:43;100899.97;;;30.50;24.45
3082;BME280;1551;51.046;7.010;2023-06-14T14:52:32;100898.22;;;30.30;24.88
3082;BME280;1551;51.046;7.010;2023-06-14T14:55:21;100908.44;;;30.04;25.18
3082;BME280;1551;51.046;7.010;2023-06-14T14:58:12;100905.44;;;29.78;25.34
3082;BME280;1551;51.046;7.010;2023-06-14T15:01:01;100912.75;;;29.96;25.38
3082;BME280;1551;51.046;7.010;2023-06-14T15:03:50;100905.78;;;29.94;25.21
3082;BME280;1551;51.046;7.010;2023-06-14T15:06:39;100912.06;;;29.93;25.04
3082;BME280;1551;51.046;7.010;2023-06-14T15:09:28;100898.91;;;30.22;26.23
3082;BME280;1551;51.046;7.010;2023-06-14T15:12:17;100901.34;;;30.44;25.30
3082;BME280;1551;51.046;7.010;2023-06-14T15:15:06;100905.09;;;30.51;24.89
3082;BME280;1551;51.046;7.010;2023-06-14T15:17:55;100905.38;;;30.68;24.98
3082;BME280;1551;51.046;7.010;2023-06-14T15:20:44;100906.47;;;30.46;24.43
3082;BME280;1551;51.046;7.010;2023-06-14T15:23:33;100906.75;;;30.33;25.49
3082;BME280;1551;51.046;7.010;2023-06-14T15:26:22;100909.00;;;30.38;24.78